Time;durP1;ratioP1;P1;durP2;ratioP2;P2;SDS_P1;SDS_P2;PMS_P1;PMS_P2;Temp;Humidity;BMP_temperature;BMP_pressure;BME280_temperature;BME280_humidity;BME280_pressure;Samples;Min_cycle;Max_cycle;Signal;HPM_P1;HPM_P2
2022/01/09 00:00:44;;;;;;;2.00;1.13;;;;;;;2.49;100.00;97002.19;5111891;28;20044;-78
2022/01/09 00:03:12;;;;;;;3.85;1.73;;;;;;;2.50;100.00;96997.63;5105860;28;20571;-78
2022/01/09 00:05:39;;;;;;;1.75;0.90;;;;;;;2.41;100.00;96980.81;5109536;28;20040;-78
2022/01/09 00:08:06;;;;;;;2.97;1.15;;;;;;;2.40;100.00;96984.53;5109352;28;20483;-78
2022/01/09 00:10:36;;;;;;;1.63;1.40;;;;;;;2.48;100.00;96989.78;5091931;28;20054;-78
2022/01/09 00:13:04;;;;;;;0.98;0.93;;;;;;;2.56;100.00;96989.69;5093770;28;20070;-79
2022/01/09 00:15:31;;;;;;;1.70;1.00;;;;;;;2.66;100.00;96986.69;5090529;28;20046;-78
2022/01/09 00:17:57;;;;;;;1.00;0.95;;;;;;;2.60;100.00;96969.50;5111003;28;20056;-78
2022/01/09 00:20:24;;;;;;;1.52;1.00;;;;;;;2.65;100.00;96964.41;5098646;28;20048;-78
2022/01/09 00:22:52;;;;;;;2.63;0.90;;;;;;;2.62;100.00;96959.44;5095318;28;20075;-78
2022/01/09 00:25:21;;;;;;;2.83;0.85;;;;;;;2.54;100.00;96938.06;5093853;28;20586;-78
2022/01/09 00:27:51;;;;;;;1.27;1.17;;;;;;;2.67;100.00;96961.53;5100590;28;20036;-78
2022/01/09 00:30:22;;;;;;;1.25;0.88;;;;;;;2.59;100.00;96930.28;5106927;28;20048;-78
2022/01/09 00:32:50;;;;;;;0.75;0.70;;;;;;;2.65;100.00;96951.00;5104238;28;20051;-78
2022/01/09 00:35:18;;;;;;;0.60;0.60;;;;;;;2.69;100.00;96950.63;5104952;28;20138;-78
2022/01/09 00:37:45;;;;;;;1.45;1.00;;;;;;;2.61;100.00;96930.94;5091705;28;20040;-78
2022/01/09 00:40:14;;;;;;;0.70;0.70;;;;;;;2.59;100.00;96929.44;5107510;28;20071;-79
2022/01/09 00:42:42;;;;;;;1.30;0.88;;;;;;;2.61;100.00;96938.16;5098669;28;20048;-78
2022/01/09 00:45:12;;;;;;;0.80;0.80;;;;;;;2.70;100.00;96937.00;5098028;28;20048;-79
2022/01/09 00:47:40;;;;;;;;;;;;;;;2.86;100.00;96943.16;5098721;27;20052;-78
2022/01/09 00:50:08;;;;;;;2.03;0.80;;;;;;;2.74;100.00;96921.34;5114033;28;19923;-78
2022/01/09 00:52:35;;;;;;;1.25;0.73;;;;;;;2.76;100.00;96912.09;5114851;28;20066;-78
2022/01/09 00:55:02;;;;;;;1.02;0.80;;;;;;;2.85;100.00;96906.63;5101919;28;20048;-78
2022/01/09 00:57:29;;;;;;;0.85;0.65;;;;;;;2.81;100.00;96911.53;5110215;28;20439;-79
2022/01/09 00:59:56;;;;;;;1.50;0.75;;;;;;;2.88;100.00;96901.69;5095587;28;20052;-79
2022/01/09 01:02:25;;;;;;;0.47;0.47;;;;;;;3.01;100.00;96901.81;5107318;28;20040;-78
2022/01/09 01:04:52;;;;;;;0.60;0.60;;;;;;;2.92;100.00;96889.56;5105823;27;20058;-78
2022/01/09 01:07:21;;;;;;;1.73;0.57;;;;;;;3.00;100.00;96912.75;5112233;27;20083;-78
2022/01/09 01:09:48;;;;;;;2.17;0.65;;;;;;;3.00;100.00;96896.66;5097671;28;20048;-79
2022/01/09 01:12:15;;;;;;;0.60;0.60;;;;;;;2.91;100.00;96882.53;5095241;28;20381;-78
2022/01/09 01:14:41;;;;;;;0.68;0.50;;;;;;;3.04;100.00;96889.88;5094505;28;20051;-79
2022/01/09 01:17:09;;;;;;;0.88;0.68;;;;;;;3.05;100.00;96896.06;5094239;28;20135;-79
2022/01/09 01:19:38;;;;;;;0.50;0.50;;;;;;;3.02;100.00;96883.84;5096612;28;20039;-78
2022/01/09 01:22:05;;;;;;;0.50;0.50;;;;;;;3.10;100.00;96886.44;5114555;28;20044;-79
2022/01/09 01:24:35;;;;;;;0.40;0.40;;;;;;;3.17;100.00;96898.03;5113645;28;20051;-78
2022/01/09 01:27:03;;;;;;;0.30;0.30;;;;;;;3.06;100.00;96882.47;5096562;28;20060;-78
2022/01/09 01:29:30;;;;;;;0.40;0.40;;;;;;;3.14;100.00;96887.69;5103727;28;20048;-79
2022/01/09 01:31:56;;;;;;;0.30;0.30;;;;;;;3.12;100.00;96880.84;5102437;28;20048;-79
2022/01/09 01:34:23;;;;;;;0.30;0.30;;;;;;;3.20;100.00;96894.13;5101588;28;20056;-78
2022/01/09 01:36:52;;;;;;;0.28;0.28;;;;;;;3.14;100.00;96886.84;5110765;28;20395;-79
2022/01/09 01:39:19;;;;;;;0.45;0.45;;;;;;;3.13;100.00;96872.63;5109461;28;20061;-78
2022/01/09 01:41:46;;;;;;;0.40;0.40;;;;;;;3.12;100.00;96856.69;5100723;28;20574;-79
2022/01/09 01:44:13;;;;;;;0.40;0.40;;;;;;;3.12;100.00;96852.16;5104017;28;20050;-78
2022/01/09 01:46:43;;;;;;;0.50;0.40;;;;;;;3.13;100.00;96866.38;5099438;27;20127;-78
2022/01/09 01:49:12;;;;;;;0.35;0.35;;;;;;;3.16;100.00;96861.47;5095230;28;20048;-78
2022/01/09 01:51:41;;;;;;;1.85;0.30;;;;;;;3.12;100.00;96862.06;5103857;28;20100;-79
2022/01/09 01:54:11;;;;;;;0.30;0.30;;;;;;;3.31;100.00;96874.81;5112737;28;20051;-78
2022/01/09 01:56:38;;;;;;;;;;;;;;;3.40;100.00;96862.06;5109326;28;20089;-78
2022/01/09 01:59:05;;;;;;;0.82;0.45;;;;;;;3.43;100.00;96877.78;5107796;28;20197;-79
2022/01/09 02:01:36;;;;;;;0.40;0.40;;;;;;;3.29;100.00;96857.22;5105543;28;20044;-79
2022/01/09 02:04:03;;;;;;;0.63;0.52;;;;;;;3.44;100.00;96865.19;5099509;28;20051;-79
2022/01/09 02:06:30;;;;;;;0.30;0.30;;;;;;;3.35;100.00;96857.28;5098537;28;20502;-78
2022/01/09 02:08:58;;;;;;;0.30;0.30;;;;;;;3.50;100.00;96872.47;5101473;27;20058;-78
2022/01/09 02:11:27;;;;;;;0.32;0.32;;;;;;;3.51;100.00;96876.81;5106165;27;20147;-78
2022/01/09 02:13:54;;;;;;;0.30;0.30;;;;;;;3.41;100.00;96849.47;5098729;28;20148;-79
2022/01/09 02:16:21;;;;;;;0.38;0.38;;;;;;;3.41;100.00;96852.97;5105507;28;20052;-79
2022/01/09 02:18:48;;;;;;;0.25;0.25;;;;;;;3.45;100.00;96859.63;5109924;28;20500;-78
2022/01/09 02:21:17;;;;;;;0.20;0.20;;;;;;;3.57;100.00;96859.06;5102870;28;20044;-79
2022/01/09 02:23:49;;;;;;;0.50;0.50;;;;;;;3.61;100.00;96863.03;5098165;28;20552;-79
2022/01/09 02:26:18;;;;;;;0.30;0.30;;;;;;;3.53;100.00;96853.25;5108793;27;20055;-78
2022/01/09 02:28:46;;;;;;;0.30;0.30;;;;;;;3.52;100.00;96865.03;5113572;28;20040;-79
2022/01/09 02:31:13;;;;;;;0.40;0.40;;;;;;;3.64;100.00;96859.94;5107786;28;20048;-78
2022/01/09 02:33:41;;;;;;;0.28;0.28;;;;;;;3.72;100.00;96871.38;5095959;28;20044;-79
2022/01/09 02:36:09;;;;;;;0.40;0.40;;;;;;;3.63;100.00;96856.44;5102582;28;20047;-78
2022/01/09 02:38:38;;;;;;;1.48;0.60;;;;;;;3.61;100.00;96850.41;5107182;28;20126;-79
2022/01/09 02:41:05;;;;;;;0.40;0.40;;;;;;;3.68;100.00;96851.28;5093377;28;20052;-79
2022/01/09 02:43:32;;;;;;;0.28;0.28;;;;;;;3.71;100.00;96874.25;5092224;28;20040;-78
2022/01/09 02:46:07;;;;;;;0.40;0.40;;;;;;;3.70;100.00;96859.16;5101850;28;20044;-79
2022/01/09 02:48:37;;;;;;;0.30;0.30;;;;;;;3.66;100.00;96852.53;5099463;28;20044;-79
2022/01/09 02:51:11;;;;;;;0.32;0.32;;;;;;;3.71;100.00;96863.50;5094295;28;20052;-79
2022/01/09 02:53:40;;;;;;;0.30;0.30;;;;;;;3.76;100.00;96862.91;5097285;28;20453;-79
2022/01/09 02:56:08;;;;;;;0.22;0.22;;;;;;;3.63;100.00;96859.13;5111718;28;20040;-79
2022/01/09 02:58:37;;;;;;;0.30;0.30;;;;;;;3.69;100.00;96854.81;5110167;28;20066;-79
2022/01/09 03:01:05;;;;;;;0.30;0.30;;;;;;;3.73;100.00;96877.56;5110062;28;20083;-79
2022/01/09 03:03:32;;;;;;;0.35;0.35;;;;;;;3.78;100.00;96874.28;5109459;28;20054;-79
2022/01/09 03:05:59;;;;;;;0.55;0.30;;;;;;;3.79;100.00;96878.63;5097369;28;20546;-79
2022/01/09 03:08:26;;;;;;;0.55;0.30;;;;;;;3.77;100.00;96878.00;5096570;28;20131;-79
2022/01/09 03:10:56;;;;;;;0.40;0.40;;;;;;;3.78;100.00;96876.97;5099526;28;20047;-79
2022/01/09 03:13:23;;;;;;;0.30;0.30;;;;;;;3.71;100.00;96868.88;5095694;28;20075;-79
2022/01/09 03:15:50;;;;;;;0.30;0.30;;;;;;;3.75;100.00;96902.41;5099658;28;20051;-78
2022/01/09 03:18:17;;;;;;;0.30;0.30;;;;;;;3.71;100.00;96890.38;5101349;28;20594;-79
2022/01/09 03:20:44;;;;;;;0.20;0.20;;;;;;;3.84;100.00;96895.84;5102014;28;20044;-79
2022/01/09 03:23:11;;;;;;;0.30;0.30;;;;;;;3.83;100.00;96907.59;5094188;28;20051;-79
2022/01/09 03:25:38;;;;;;;0.57;0.30;;;;;;;3.64;100.00;96902.94;5092721;28;20052;-79
2022/01/09 03:28:06;;;;;;;0.50;0.30;;;;;;;3.61;100.00;96885.34;5101155;28;20043;-78
2022/01/09 03:30:33;;;;;;;0.30;0.30;;;;;;;3.65;100.00;96888.47;5105467;28;20046;-78
2022/01/09 03:33:00;;;;;;;0.28;0.28;;;;;;;3.68;100.00;96907.72;5095353;28;20040;-78
2022/01/09 03:35:29;;;;;;;0.30;0.30;;;;;;;3.77;100.00;96916.47;5098702;28;20047;-78
2022/01/09 03:37:57;;;;;;;0.40;0.40;;;;;;;3.72;100.00;96906.31;5110403;28;20514;-79
2022/01/09 03:40:26;;;;;;;0.38;0.30;;;;;;;3.62;100.00;96889.69;5101165;28;20047;-79
2022/01/09 03:42:53;;;;;;;1.02;0.50;;;;;;;3.71;100.00;96907.31;5103051;28;20052;-79
2022/01/09 03:45:23;;;;;;;0.30;0.30;;;;;;;3.66;100.00;96895.53;5106894;28;20066;-79
2022/01/09 03:47:51;;;;;;;0.35;0.30;;;;;;;3.67;100.00;96908.75;5101925;28;20047;-79
2022/01/09 03:50:18;;;;;;;0.47;0.40;;;;;;;3.68;100.00;96923.84;5092550;28;20048;-79
2022/01/09 03:52:48;;;;;;;1.85;0.30;;;;;;;3.62;100.00;96905.00;5106198;28;20495;-79
2022/01/09 03:55:15;;;;;;;0.20;0.20;;;;;;;3.66;100.00;96917.84;5104734;28;20479;-79
2022/01/09 03:57:42;;;;;;;0.30;0.30;;;;;;;3.64;100.00;96929.81;5107721;28;20502;-79
2022/01/09 04:00:12;;;;;;;0.85;0.73;;;;;;;3.54;100.00;96919.41;5093045;28;20052;-78
2022/01/09 04:02:41;;;;;;;0.47;0.32;;;;;;;3.59;100.00;96921.50;5092265;28;20040;-78
2022/01/09 04:05:09;;;;;;;3.95;0.40;;;;;;;3.68;100.00;96928.41;5105032;28;20048;-79
2022/01/09 04:07:36;;;;;;;0.73;0.30;;;;;;;3.69;100.00;96930.06;5112369;28;20445;-79
2022/01/09 04:10:03;;;;;;;2.35;0.38;;;;;;;3.65;100.00;96932.28;5099285;28;20055;-78
2022/01/09 04:12:34;;;;;;;0.30;0.30;;;;;;;3.65;100.00;96939.53;5100090;28;20053;-78
2022/01/09 04:15:05;;;;;;;0.35;0.35;;;;;;;3.52;100.00;96932.19;5095771;28;20067;-78
2022/01/09 04:17:43;;;;;;;1.88;0.30;;;;;;;3.56;100.00;96941.53;5092286;28;20097;-78
2022/01/09 04:20:13;;;;;;;0.30;0.30;;;;;;;3.57;100.00;96947.72;5104725;28;20050;-78
2022/01/09 04:22:40;;;;;;;0.30;0.30;;;;;;;3.58;100.00;96960.97;5105001;28;20044;-78
2022/01/09 04:25:08;;;;;;;0.45;0.30;;;;;;;3.54;100.00;96962.41;5113413;28;20479;-78
2022/01/09 04:27:36;;;;;;;0.30;0.30;;;;;;;3.57;100.00;96979.97;5100028;28;20264;-78
2022/01/09 04:30:04;;;;;;;0.52;0.40;;;;;;;3.46;100.00;96967.88;5115492;28;20487;-77
2022/01/09 04:32:31;;;;;;;0.98;0.30;;;;;;;3.43;100.00;96979.03;5113736;28;20047;-78
2022/01/09 04:34:58;;;;;;;0.40;0.40;;;;;;;3.50;100.00;96999.56;5114495;28;20495;-78
2022/01/09 04:37:27;;;;;;;0.40;0.40;;;;;;;3.46;100.00;97011.72;5099816;27;20395;-78
2022/01/09 04:39:55;;;;;;;0.38;0.38;;;;;;;3.42;100.00;97018.50;5104241;28;20047;-78
2022/01/09 04:42:27;;;;;;;0.40;0.40;;;;;;;3.35;100.00;97009.53;5113733;28;20072;-78
2022/01/09 04:44:54;;;;;;;0.50;0.50;;;;;;;3.29;100.00;97008.44;5102490;28;20044;-78
2022/01/09 04:47:21;;;;;;;1.05;0.52;;;;;;;3.33;100.00;97039.28;5095914;28;20095;-78
2022/01/09 04:49:49;;;;;;;1.95;0.50;;;;;;;3.33;100.00;97052.69;5097327;28;20048;-78
2022/01/09 04:52:20;;;;;;;0.55;0.55;;;;;;;3.26;100.00;97059.03;5107131;28;20051;-78
2022/01/09 04:54:48;;;;;;;0.38;0.38;;;;;;;3.23;100.00;97052.19;5107494;28;20060;-78
2022/01/09 04:57:15;;;;;;;0.30;0.30;;;;;;;3.19;100.00;97073.22;5106702;28;20048;-78
2022/01/09 04:59:42;;;;;;;0.20;0.20;;;;;;;3.15;100.00;97061.19;5096943;28;20040;-78
2022/01/09 05:02:09;;;;;;;0.30;0.30;;;;;;;3.13;100.00;97068.59;5096337;28;20050;-78
2022/01/09 05:04:36;;;;;;;0.43;0.43;;;;;;;3.12;100.00;97085.72;5112607;27;20047;-78
2022/01/09 05:07:03;;;;;;;0.30;0.30;;;;;;;2.99;100.00;97088.25;5102501;28;20608;-78
2022/01/09 05:09:30;;;;;;;0.30;0.30;;;;;;;3.06;100.00;97097.22;5109828;28;20039;-77
2022/01/09 05:11:59;;;;;;;0.40;0.40;;;;;;;2.98;100.00;97098.16;5113014;28;20040;-78
2022/01/09 05:14:26;;;;;;;2.72;0.40;;;;;;;2.95;100.00;97101.22;5111562;28;20036;-78
2022/01/09 05:16:53;;;;;;;0.30;0.30;;;;;;;2.87;100.00;97119.28;5111953;28;20048;-78
2022/01/09 05:19:22;;;;;;;2.70;0.60;;;;;;;2.88;100.00;97127.13;5102109;28;20054;-79
2022/01/09 05:21:49;;;;;;;0.30;0.30;;;;;;;2.85;100.00;97137.44;5101889;28;20074;-78
2022/01/09 05:24:17;;;;;;;0.30;0.30;;;;;;;2.81;100.00;97143.13;5109009;28;20040;-78
2022/01/09 05:26:44;;;;;;;1.02;0.30;;;;;;;2.83;100.00;97176.00;5112570;27;20050;-78
2022/01/09 05:29:13;;;;;;;0.30;0.30;;;;;;;2.75;100.00;97172.56;5107932;28;20059;-77
2022/01/09 05:31:40;;;;;;;0.60;0.60;;;;;;;2.68;100.00;97175.16;5111984;28;20047;-78
2022/01/09 05:34:08;;;;;;;2.47;0.50;;;;;;;2.57;100.00;97195.22;5114808;28;20139;-79
2022/01/09 05:36:35;;;;;;;0.30;0.30;;;;;;;2.44;100.00;97187.81;5107966;28;20055;-78
2022/01/09 05:39:02;;;;;;;0.30;0.30;;;;;;;2.32;100.00;97207.19;5094864;28;20053;-78
2022/01/09 05:41:29;;;;;;;0.30;0.30;;;;;;;2.24;100.00;97216.13;5093834;28;20551;-79
2022/01/09 05:43:55;;;;;;;0.38;0.38;;;;;;;2.16;100.00;97210.84;5106434;28;20046;-78
2022/01/09 05:46:24;;;;;;;0.43;0.40;;;;;;;2.13;100.00;97215.53;5110098;28;20059;-78
2022/01/09 05:48:51;;;;;;;0.68;0.45;;;;;;;2.15;100.00;97242.16;5094914;28;20051;-79
2022/01/09 05:51:18;;;;;;;0.65;0.40;;;;;;;2.13;100.00;97250.38;5103518;28;20039;-78
2022/01/09 05:53:45;;;;;;;3.58;0.38;;;;;;;2.20;100.00;97260.38;5097864;28;20506;-79
2022/01/09 05:56:12;;;;;;;0.90;0.40;;;;;;;2.16;100.00;97257.22;5094467;28;20439;-79
2022/01/09 05:58:39;;;;;;;0.35;0.35;;;;;;;2.10;100.00;97258.78;5098189;28;20075;-79
2022/01/09 06:01:07;;;;;;;1.23;0.40;;;;;;;2.09;100.00;97265.16;5102183;28;20047;-79
2022/01/09 06:03:37;;;;;;;0.35;0.35;;;;;;;2.07;100.00;97280.56;5104453;27;20047;-78
2022/01/09 06:06:04;;;;;;;0.30;0.30;;;;;;;2.08;100.00;97281.44;5097097;28;20051;-77
2022/01/09 06:08:31;;;;;;;0.57;0.45;;;;;;;2.06;100.00;97303.06;5095874;28;20442;-77
2022/01/09 06:10:58;;;;;;;0.85;0.60;;;;;;;2.06;100.00;97295.00;5114631;28;20060;-78
2022/01/09 06:13:25;;;;;;;1.92;0.50;;;;;;;2.16;100.00;97294.78;5112669;28;20048;-79
2022/01/09 06:15:52;;;;;;;0.45;0.45;;;;;;;2.13;100.00;97304.00;5113718;28;20044;-78
2022/01/09 06:18:20;;;;;;;0.80;0.57;;;;;;;2.02;100.00;97298.19;5112785;28;20507;-78
2022/01/09 06:20:48;;;;;;;0.65;0.65;;;;;;;2.13;100.00;97311.22;5112910;28;20048;-79
2022/01/09 06:23:19;;;;;;;3.75;1.73;;;;;;;2.09;100.00;97301.84;5113083;28;20529;-78
2022/01/09 06:25:46;;;;;;;4.43;0.88;;;;;;;2.14;100.00;97331.66;5113225;27;20048;-78
2022/01/09 06:28:13;;;;;;;0.47;0.47;;;;;;;2.18;100.00;97321.41;5113307;28;20048;-78
2022/01/09 06:30:41;;;;;;;3.05;0.68;;;;;;;2.20;100.00;97341.66;5093836;28;20055;-78
2022/01/09 06:33:08;;;;;;;2.20;0.70;;;;;;;2.18;100.00;97329.44;5093925;28;20044;-78
2022/01/09 06:35:35;;;;;;;2.70;0.80;;;;;;;2.17;100.00;97333.13;5104911;28;20048;-78
2022/01/09 06:38:04;;;;;;;1.65;0.82;;;;;;;2.34;100.00;97368.75;5114234;28;20056;-78
2022/01/09 06:40:31;;;;;;;1.65;0.60;;;;;;;2.34;100.00;97366.88;5102126;28;20482;-78
2022/01/09 06:42:58;;;;;;;2.67;0.70;;;;;;;2.34;100.00;97364.22;5093489;28;20055;-79
2022/01/09 06:45:26;;;;;;;3.03;0.80;;;;;;;2.38;100.00;97375.41;5110960;28;20044;-78
2022/01/09 06:47:53;;;;;;;0.68;0.65;;;;;;;2.35;100.00;97378.44;5113096;28;20400;-78
2022/01/09 06:50:21;;;;;;;1.05;0.90;;;;;;;2.35;100.00;97379.28;5098324;28;20504;-78
2022/01/09 06:52:48;;;;;;;1.35;0.85;;;;;;;2.44;100.00;97401.53;5112706;28;20043;-78
2022/01/09 06:55:16;;;;;;;1.70;0.65;;;;;;;2.38;100.00;97399.53;5104343;28;20051;-78
2022/01/09 06:57:43;;;;;;;2.17;0.63;;;;;;;2.37;100.00;97398.72;5113367;28;20051;-79
2022/01/09 07:00:12;;;;;;;1.85;0.75;;;;;;;2.42;100.00;97417.78;5101891;28;20048;-78
2022/01/09 07:02:39;;;;;;;0.60;0.60;;;;;;;2.41;100.00;97418.81;5113110;27;20059;-78
2022/01/09 07:05:07;;;;;;;4.35;0.50;;;;;;;2.44;100.00;97428.38;5099398;28;20400;-77
2022/01/09 07:07:34;;;;;;;1.15;0.60;;;;;;;2.40;100.00;97430.53;5094689;28;20547;-78
2022/01/09 07:10:01;;;;;;;2.58;0.75;;;;;;;2.35;100.00;97427.56;5111296;28;20044;-78
2022/01/09 07:12:29;;;;;;;2.72;0.93;;;;;;;2.44;100.00;97455.19;5097949;28;20055;-78
2022/01/09 07:14:56;;;;;;;1.15;0.93;;;;;;;2.38;100.00;97446.00;5111246;28;20048;-78
2022/01/09 07:17:23;;;;;;;4.05;1.23;;;;;;;2.28;100.00;97437.31;5113540;28;20051;-79
2022/01/09 07:19:50;;;;;;;1.25;0.65;;;;;;;2.27;100.00;97439.19;5109636;28;20047;-78
2022/01/09 07:22:17;;;;;;;0.73;0.73;;;;;;;2.31;100.00;97450.38;5097098;28;20510;-78
2022/01/09 07:24:45;;;;;;;1.15;0.98;;;;;;;2.35;100.00;97472.31;5108004;27;20085;-78
2022/01/09 07:27:12;;;;;;;5.78;1.48;;;;;;;2.38;100.00;97475.50;5110108;28;20193;-78
2022/01/09 07:29:40;;;;;;;2.90;1.20;;;;;;;2.38;100.00;97486.22;5100977;28;20066;-78
2022/01/09 07:32:08;;;;;;;4.40;0.90;;;;;;;2.31;100.00;97471.81;5112210;27;20044;-78
2022/01/09 07:34:35;;;;;;;8.43;2.83;;;;;;;2.41;100.00;97493.06;5106904;28;20051;-78
2022/01/09 07:37:03;;;;;;;7.75;1.35;;;;;;;2.43;100.00;97499.94;5092482;28;20056;-78
2022/01/09 07:39:30;;;;;;;6.18;1.45;;;;;;;2.40;100.00;97502.13;5103727;28;20054;-78
2022/01/09 07:41:58;;;;;;;6.65;1.35;;;;;;;2.36;100.00;97490.06;5099846;27;20055;-78
2022/01/09 07:44:26;;;;;;;3.85;1.17;;;;;;;2.36;100.00;97503.50;5108155;28;20116;-80
2022/01/09 07:46:54;;;;;;;4.07;1.20;;;;;;;2.47;100.00;97514.69;5110377;28;20475;-78
2022/01/09 07:49:22;;;;;;;7.25;2.13;;;;;;;2.39;100.00;97522.75;5097230;28;20047;-78
2022/01/09 07:51:49;;;;;;;4.25;1.55;;;;;;;2.34;100.00;97514.38;5104949;28;20096;-78
2022/01/09 07:54:15;;;;;;;8.32;1.92;;;;;;;2.47;100.00;97533.44;5114108;28;20061;-78
2022/01/09 07:56:42;;;;;;;4.97;1.83;;;;;;;2.54;100.00;97541.63;5113678;28;20051;-78
2022/01/09 07:59:09;;;;;;;3.95;1.70;;;;;;;2.44;100.00;97531.13;5098658;28;20054;-78
2022/01/09 08:01:36;;;;;;;11.15;1.77;;;;;;;2.38;100.00;97521.09;5102955;28;20040;-78
2022/01/09 08:04:05;;;;;;;7.65;1.63;;;;;;;2.48;100.00;97542.31;5108478;28;20051;-78
2022/01/09 08:06:31;;;;;;;6.45;1.50;;;;;;;2.53;100.00;97571.31;5103880;28;20055;-78
2022/01/09 08:08:58;;;;;;;2.78;1.10;;;;;;;2.47;100.00;97554.91;5104218;28;20257;-78
2022/01/09 08:11:25;;;;;;;9.13;1.63;;;;;;;2.41;100.00;97560.13;5108478;28;20043;-79
2022/01/09 08:13:52;;;;;;;7.85;1.88;;;;;;;2.41;100.00;97571.69;5099101;28;20134;-78
2022/01/09 08:16:19;;;;;;;5.35;1.42;;;;;;;2.38;100.00;97563.13;5104278;28;20414;-78
2022/01/09 08:18:46;;;;;;;4.50;1.20;;;;;;;2.50;100.00;97593.13;5110273;28;20043;-78
2022/01/09 08:21:20;;;;;;;5.63;2.35;;;;;;;2.37;100.00;97577.59;5109267;28;20902;-78
2022/01/09 08:23:48;;;;;;;7.03;1.25;;;;;;;2.44;100.00;97594.66;5093154;28;20539;-78
2022/01/09 08:26:15;;;;;;;5.15;1.10;;;;;;;2.39;100.00;97603.19;5091709;28;20048;-79
2022/01/09 08:28:47;;;;;;;3.97;1.17;;;;;;;2.46;100.00;97608.72;5091941;28;20048;-79
2022/01/09 08:31:15;;;;;;;3.55;1.10;;;;;;;2.43;100.00;97609.06;5095707;28;20055;-79
2022/01/09 08:33:42;;;;;;;4.07;1.33;;;;;;;2.46;100.00;97631.03;5105877;28;20117;-78
2022/01/09 08:36:09;;;;;;;9.50;1.85;;;;;;;2.43;100.00;97633.22;5103651;28;20044;-78
2022/01/09 08:38:38;;;;;;;3.53;1.15;;;;;;;2.38;100.00;97640.91;5091964;28;20200;-78
2022/01/09 08:41:05;;;;;;;4.20;1.75;;;;;;;2.47;100.00;97642.59;5106077;28;20483;-79
2022/01/09 08:43:32;;;;;;;7.78;1.40;;;;;;;2.44;100.00;97641.09;5109416;28;20073;-79
2022/01/09 08:45:59;;;;;;;1.38;0.77;;;;;;;2.46;100.00;97636.38;5098529;28;20484;-79
2022/01/09 08:48:26;;;;;;;5.75;1.05;;;;;;;2.48;100.00;97646.94;5093222;28;20399;-79
2022/01/09 08:50:53;;;;;;;4.60;1.10;;;;;;;2.39;100.00;97637.25;5106613;28;20052;-79
2022/01/09 08:53:20;;;;;;;13.52;1.77;;;;;;;2.45;100.00;97649.97;5092439;28;20048;-78
2022/01/09 08:55:49;;;;;;;7.22;1.40;;;;;;;2.50;100.00;97652.13;5110486;28;20135;-79
2022/01/09 08:58:17;;;;;;;8.23;1.75;;;;;;;2.47;100.00;97648.81;5109516;28;20043;-79
2022/01/09 09:00:43;;;;;;;7.82;1.75;;;;;;;2.61;100.00;97668.72;5105835;28;20050;-79
2022/01/09 09:03:11;;;;;;;5.45;1.45;;;;;;;2.54;100.00;97665.03;5100509;28;20054;-79
2022/01/09 09:05:37;;;;;;;8.68;1.80;;;;;;;2.61;100.00;97676.75;5095847;28;20115;-79
2022/01/09 09:08:05;;;;;;;4.63;1.30;;;;;;;2.51;100.00;97657.34;5101006;28;20040;-79
2022/01/09 09:10:32;;;;;;;12.68;2.17;;;;;;;2.70;100.00;97674.91;5094169;28;20055;-79
2022/01/09 09:13:00;;;;;;;7.90;1.70;;;;;;;2.68;100.00;97674.25;5108802;28;20434;-79
2022/01/09 09:15:27;;;;;;;3.17;1.58;;;;;;;2.59;100.00;97665.38;5107724;28;20044;-78
2022/01/09 09:17:55;;;;;;;5.85;2.65;;;;;;;2.75;100.00;97682.44;5104645;28;20406;-78
2022/01/09 09:20:22;;;;;;;3.00;1.17;;;;;;;2.75;100.00;97690.50;5103605;28;20495;-78
2022/01/09 09:22:50;;;;;;;4.97;1.25;;;;;;;2.75;100.00;97690.50;5102693;28;20497;-79
2022/01/09 09:25:17;;;;;;;9.27;1.45;;;;;;;2.82;100.00;97695.00;5115575;28;20403;-78
2022/01/09 09:27:44;;;;;;;7.25;1.70;;;;;;;2.80;100.00;97704.22;5109878;28;20273;-78
2022/01/09 09:30:14;;;;;;;6.38;1.50;;;;;;;2.80;100.00;97714.97;5113937;27;20048;-78
2022/01/09 09:32:42;;;;;;;4.00;1.23;;;;;;;2.77;100.00;97707.25;5109440;28;20075;-78
2022/01/09 09:35:09;;;;;;;2.40;0.98;;;;;;;2.91;100.00;97721.84;5103376;28;20404;-78
2022/01/09 09:37:36;;;;;;;11.35;1.70;;;;;;;2.83;100.00;97711.94;5099101;28;20059;-78
2022/01/09 09:40:04;;;;;;;10.70;1.77;;;;;;;2.98;100.00;97738.91;5104344;28;20055;-78
2022/01/09 09:42:31;;;;;;;5.80;1.35;;;;;;;2.88;100.00;97725.69;5106555;27;20527;-78
2022/01/09 09:45:01;;;;;;;8.70;1.52;;;;;;;2.99;100.00;97729.84;5115673;28;20582;-78
2022/01/09 09:47:30;;;;;;;3.38;1.65;;;;;;;3.00;100.00;97747.66;5095851;28;20120;-78
2022/01/09 09:49:57;;;;;;;15.07;1.95;;;;;;;3.01;100.00;97746.63;5112387;28;20738;-79
2022/01/09 09:52:25;;;;;;;15.75;2.22;;;;;;;3.03;100.00;97744.63;5104588;28;20423;-78
2022/01/09 09:54:53;;;;;;;6.03;2.20;;;;;;;3.07;100.00;97740.59;5111212;28;20055;-78
2022/01/09 09:57:20;;;;;;;9.38;2.33;;;;;;;3.03;100.00;97741.06;5094586;28;20063;-78
2022/01/09 09:59:47;;;;;;;8.60;2.35;;;;;;;3.14;100.00;97760.34;5111387;27;20048;-78
2022/01/09 10:02:16;;;;;;;2.55;1.00;;;;;;;3.13;100.00;97749.78;5113523;28;20059;-78
2022/01/09 10:05:00;;;;;;;2.60;1.17;;;;;;;3.14;100.00;97756.84;5102512;28;20044;-79
2022/01/09 10:07:28;;;;;;;9.23;2.00;;;;;;;3.18;100.00;97752.81;5094189;28;20040;-78
2022/01/09 10:09:57;;;;;;;11.02;1.75;;;;;;;3.13;100.00;97755.16;5092977;28;20051;-79
2022/01/09 10:12:26;;;;;;;9.02;2.92;;;;;;;3.20;100.00;97750.78;5122860;27;20487;-79
2022/01/09 10:14:55;;;;;;;2.40;1.20;;;;;;;3.25;100.00;97736.81;5109848;28;20285;-79
2022/01/09 10:17:24;;;;;;;5.75;1.15;;;;;;;3.30;100.00;97747.91;5111411;28;20102;-80
2022/01/09 10:19:52;;;;;;;4.63;1.38;;;;;;;3.35;100.00;97754.41;5103034;28;20059;-79
2022/01/09 10:22:27;;;;;;;10.38;1.70;;;;;;;3.35;100.00;97749.03;5106589;28;20047;-78
2022/01/09 10:24:55;;;;;;;6.25;1.67;;;;;;;3.33;100.00;97753.75;5104992;28;20049;-79
2022/01/09 10:27:38;;;;;;;7.50;1.48;;;;;;;3.38;100.00;97763.97;5094884;28;20056;-79
2022/01/09 10:30:06;;;;;;;5.55;1.02;;;;;;;3.39;100.00;97779.09;5094191;28;20050;-79
2022/01/09 10:32:34;;;;;;;11.32;1.63;;;;;;;3.32;100.00;97759.31;5110682;28;20051;-79
2022/01/09 10:35:13;;;;;;;7.75;1.40;;;;;;;3.32;100.00;97768.19;5106787;28;20055;-79
2022/01/09 10:37:44;;;;;;;5.78;1.27;;;;;;;3.47;100.00;97775.53;5100641;28;20388;-79
2022/01/09 10:40:20;;;;;;;4.43;1.23;;;;;;;3.57;100.00;97792.31;5110109;28;20044;-84
2022/01/09 10:43:02;;;;;;;5.97;1.23;;;;;;;3.52;100.00;97787.44;5100723;28;20071;-78
2022/01/09 10:45:29;;;;;;;3.92;1.77;;;;;;;3.53;100.00;97775.66;5114477;28;20445;-78
2022/01/09 10:48:04;;;;;;;7.75;1.33;;;;;;;3.51;100.00;97791.13;5096176;28;20054;-78
2022/01/09 10:50:33;;;;;;;3.88;1.00;;;;;;;3.57;100.00;97789.63;5110444;28;20092;-78
2022/01/09 10:53:23;;;;;;;1.27;0.77;;;;;;;3.57;100.00;97789.63;5095919;28;20040;-78
2022/01/09 10:56:02;;;;;;;2.70;1.35;;;;;;;3.44;100.00;97794.69;5097151;28;20058;-78
2022/01/09 10:58:31;;;;;;;4.40;1.50;;;;;;;3.50;100.00;97820.88;5098587;28;20055;-79
2022/01/09 11:01:15;;;;;;;4.70;1.00;;;;;;;3.52;100.00;97810.78;5095311;28;20293;-79
2022/01/09 11:03:44;;;;;;;3.63;1.50;;;;;;;3.54;100.00;97808.78;5100657;28;20047;-79
2022/01/09 11:06:11;;;;;;;5.40;0.90;;;;;;;3.41;100.00;97795.88;5104653;28;20055;-79
2022/01/09 11:08:41;;;;;;;9.13;1.42;;;;;;;3.49;100.00;97811.13;5095088;28;20042;-79
2022/01/09 11:11:16;;;;;;;3.38;1.33;;;;;;;3.48;100.00;97798.72;5102798;28;20127;-79
2022/01/09 11:13:48;;;;;;;5.18;1.58;;;;;;;3.55;100.00;97802.38;5104718;28;20075;-79
2022/01/09 11:16:34;;;;;;;5.72;0.98;;;;;;;3.72;100.00;97809.38;5106810;28;20138;-79
2022/01/09 11:19:04;;;;;;;5.85;1.75;;;;;;;3.63;100.00;97823.84;5106431;28;20040;-79
2022/01/09 11:21:32;;;;;;;2.88;1.05;;;;;;;3.51;100.00;97793.00;5101059;28;20407;-79
2022/01/09 11:24:55;;;;;;;4.70;1.30;;;;;;;3.60;100.00;97804.53;5101921;28;20039;-79
2022/01/09 11:27:41;;;;;;;9.43;1.30;;;;;;;3.77;100.00;97824.13;5095935;28;20424;-79
2022/01/09 11:30:11;;;;;;;5.40;1.05;;;;;;;3.63;100.00;97804.19;5092306;28;20047;-79
2022/01/09 11:32:50;;;;;;;4.22;1.13;;;;;;;3.64;100.00;97813.94;5092807;28;20476;-79
2022/01/09 11:35:26;;;;;;;4.22;0.98;;;;;;;3.70;100.00;97821.28;5099435;28;20044;-79
2022/01/09 11:38:05;;;;;;;6.35;1.40;;;;;;;3.65;100.00;97821.81;5106432;28;20048;-79
2022/01/09 11:40:34;;;;;;;7.90;1.33;;;;;;;3.65;100.00;97827.19;5101990;28;20078;-79